Gosnell, Arkansas
Current Conditions -  °F | °C
As of 5:53 PM on Saturday 22 Nov 2014 (Local Time) from KHKA Reporting Station
Broken Clouds Broken Clouds  
Wind Chill: 68°   Ceiling: 6000
Heat Index: 68°   Visibility: 10mi
Dew Point: 41°   Wind: 10mph
Humidity: 37%   Direction: 170°S
Pressure: 30.04"   Gusts: NA
Location:  35.96°N, 89.97°W
Report Text: KHKA 222353Z AUTO 17009KT 10SM BKN060 20/05 A3004 RMK AO2 SLP172 T02000050 10256 20200 56009 $
Loading
Personal Weather Stations






























Interactive Weather Map New forecast layout! Learn more

10-Day Weather Forecast

Advertisements
Track Severe Weather on mobile